Time;durP1;ratioP1;P1;durP2;ratioP2;P2;SDS_P1;SDS_P2;PMS_P1;PMS_P2;Temp;Humidity;BMP_temperature;BMP_pressure;BME280_temperature;BME280_humidity;BME280_pressure;Samples;Min_cycle;Max_cycle;Signal;HPM_P1;HPM_P2
2022/02/25 00:02:14;;;;;;;11.13;1.75;;;3.40;99.90;;;;;;5066599;28;20531;-68
2022/02/25 00:04:40;;;;;;;11.27;1.80;;;3.40;99.90;;;;;;5085230;28;20497;-68
2022/02/25 00:07:06;;;;;;;14.05;1.60;;;3.50;99.90;;;;;;5081130;28;20040;-69
2022/02/25 00:09:32;;;;;;;12.48;2.10;;;3.50;99.90;;;;;;5084109;28;20480;-68
2022/02/25 00:11:59;;;;;;;7.70;1.42;;;3.60;99.90;;;;;;5064201;28;20516;-69
2022/02/25 00:14:25;;;;;;;9.88;1.35;;;3.60;99.90;;;;;;5067098;28;20047;-69
2022/02/25 00:16:51;;;;;;;9.43;1.42;;;3.60;99.90;;;;;;5061443;28;20052;-69
2022/02/25 00:19:18;;;;;;;10.77;1.20;;;3.70;99.90;;;;;;5046085;28;20039;-69
2022/02/25 00:21:44;;;;;;;11.15;1.52;;;3.70;99.90;;;;;;5063346;28;20086;-69
2022/02/25 00:24:10;;;;;;;9.90;1.38;;;3.70;99.90;;;;;;5063592;28;20040;-69
2022/02/25 00:26:36;;;;;;;8.25;2.05;;;3.80;99.90;;;;;;5061325;28;20413;-69
2022/02/25 00:29:03;;;;;;;10.27;1.10;;;3.80;99.90;;;;;;5079931;28;20036;-69
2022/02/25 00:31:29;;;;;;;11.60;1.30;;;3.90;99.90;;;;;;5063790;28;20044;-68
2022/02/25 00:33:55;;;;;;;9.30;1.23;;;3.90;99.90;;;;;;5062986;28;20035;-68
2022/02/25 00:36:20;;;;;;;12.52;2.35;;;3.90;99.90;;;;;;5043382;28;20105;-68
2022/02/25 00:38:46;;;;;;;12.48;1.70;;;4.00;99.90;;;;;;5069843;28;20109;-68
2022/02/25 00:41:12;;;;;;;12.77;1.88;;;4.00;99.90;;;;;;5046218;28;20500;-68
2022/02/25 00:43:38;;;;;;;8.00;1.52;;;4.00;99.90;;;;;;5047290;28;20044;-68
2022/02/25 00:46:03;;;;;;;10.93;1.20;;;4.00;99.90;;;;;;5061309;28;20147;-68
2022/02/25 00:48:29;;;;;;;11.18;1.27;;;4.10;99.90;;;;;;5062830;28;20604;-68
2022/02/25 00:50:55;;;;;;;10.60;1.67;;;4.10;99.90;;;;;;5063860;28;20127;-68
2022/02/25 00:53:20;;;;;;;8.63;1.30;;;4.10;99.90;;;;;;5065903;28;20043;-68
2022/02/25 00:55:46;;;;;;;11.15;2.08;;;4.10;99.90;;;;;;5079838;28;20361;-69
2022/02/25 00:58:12;;;;;;;15.68;1.90;;;4.10;99.90;;;;;;5078511;28;20098;-68
2022/02/25 01:00:38;;;;;;;10.10;1.77;;;4.20;99.90;;;;;;5060382;28;20067;-68
2022/02/25 01:03:03;;;;;;;10.02;1.27;;;4.20;99.90;;;;;;5079977;28;20032;-68
2022/02/25 01:05:29;;;;;;;11.45;1.98;;;4.20;99.90;;;;;;5079275;28;20063;-68
2022/02/25 01:07:55;;;;;;;12.13;1.98;;;4.20;99.90;;;;;;5065399;28;20055;-68
2022/02/25 01:10:20;;;;;;;7.35;1.30;;;4.20;99.90;;;;;;5063940;28;20074;-68
2022/02/25 01:12:47;;;;;;;5.25;1.45;;;4.30;99.90;;;;;;5079835;28;20040;-68
2022/02/25 01:15:14;;;;;;;12.15;1.70;;;4.30;99.90;;;;;;5062333;28;20127;-68
2022/02/25 01:17:40;;;;;;;10.95;1.77;;;4.30;99.90;;;;;;5062757;28;20036;-68
2022/02/25 01:20:07;;;;;;;13.10;2.05;;;4.30;99.90;;;;;;5079907;28;20036;-68
2022/02/25 01:22:34;;;;;;;10.98;1.40;;;4.40;99.90;;;;;;5061900;28;20032;-67
2022/02/25 01:25:00;;;;;;;12.18;1.52;;;4.40;99.90;;;;;;5081357;28;20379;-68
2022/02/25 01:27:27;;;;;;;9.85;1.40;;;4.30;99.90;;;;;;5061254;28;20452;-68
2022/02/25 01:29:52;;;;;;;7.93;1.75;;;4.40;99.90;;;;;;5081562;28;20120;-68
2022/02/25 01:32:19;;;;;;;15.70;1.55;;;4.40;99.90;;;;;;5065452;28;20365;-68
2022/02/25 01:34:44;;;;;;;12.95;1.55;;;4.40;99.90;;;;;;5085360;28;20126;-68
2022/02/25 01:37:10;;;;;;;9.35;1.33;;;4.50;99.90;;;;;;5088290;28;20044;-68
2022/02/25 01:39:36;;;;;;;12.70;1.42;;;4.50;99.90;;;;;;5090688;28;20043;-68
2022/02/25 01:42:04;;;;;;;11.00;1.48;;;4.50;99.90;;;;;;5082490;28;20044;-68
2022/02/25 01:44:32;;;;;;;9.50;1.75;;;4.50;99.90;;;;;;5066548;28;20036;-68
2022/02/25 01:47:00;;;;;;;8.82;1.48;;;4.50;99.90;;;;;;5064581;28;20055;-68
2022/02/25 01:49:26;;;;;;;13.45;1.95;;;4.50;99.90;;;;;;5062690;28;20036;-68
2022/02/25 01:51:56;;;;;;;10.50;1.60;;;4.50;99.90;;;;;;5063686;28;20043;-68
2022/02/25 01:54:22;;;;;;;9.48;2.03;;;4.60;99.90;;;;;;5085182;28;20054;-68
2022/02/25 01:56:48;;;;;;;10.68;1.45;;;4.60;99.90;;;;;;5066374;28;20040;-68
2022/02/25 01:59:14;;;;;;;10.85;1.35;;;4.50;99.90;;;;;;5063165;28;20134;-68
2022/02/25 02:01:40;;;;;;;13.73;1.85;;;4.60;99.90;;;;;;5068224;28;20409;-69
2022/02/25 02:04:07;;;;;;;12.07;1.83;;;4.60;99.90;;;;;;5062261;28;20465;-69
2022/02/25 02:06:33;;;;;;;11.38;2.45;;;4.60;99.90;;;;;;5062077;28;20066;-69
2022/02/25 02:08:59;;;;;;;9.40;1.40;;;4.50;99.90;;;;;;5087605;28;20032;-69
2022/02/25 02:11:43;;;;;;;9.95;1.40;;;4.50;99.90;;;;;;5080451;28;20032;-68
2022/02/25 02:14:13;;;;;;;13.70;2.10;;;4.40;99.90;;;;;;5070616;28;20071;-68
2022/02/25 02:16:41;;;;;;;11.80;1.70;;;4.40;99.90;;;;;;5084212;28;20484;-68
2022/02/25 02:19:07;;;;;;;9.55;1.67;;;4.30;99.90;;;;;;5037780;28;20483;-68
2022/02/25 02:21:38;;;;;;;15.05;1.88;;;4.20;99.90;;;;;;5061774;28;20032;-68
2022/02/25 02:24:03;;;;;;;11.20;1.95;;;4.20;99.90;;;;;;5066063;28;20044;-68
2022/02/25 02:26:29;;;;;;;11.15;1.90;;;4.20;99.90;;;;;;5064612;28;20040;-69
2022/02/25 02:28:56;;;;;;;10.70;1.50;;;4.10;99.90;;;;;;5065549;28;20480;-68
2022/02/25 02:31:21;;;;;;;12.70;2.00;;;4.10;99.90;;;;;;5065464;28;20047;-69
2022/02/25 02:33:47;;;;;;;11.75;1.85;;;4.00;99.90;;;;;;5086757;28;20052;-69
2022/02/25 02:36:13;;;;;;;14.65;1.77;;;4.00;99.90;;;;;;5063205;28;20123;-69
2022/02/25 02:38:40;;;;;;;14.38;2.00;;;3.90;99.90;;;;;;5059867;28;20040;-68
2022/02/25 02:41:07;;;;;;;17.77;1.95;;;3.90;99.90;;;;;;5065618;28;20036;-68
2022/02/25 02:43:33;;;;;;;11.25;1.70;;;3.90;99.90;;;;;;5083617;28;20086;-69
2022/02/25 02:45:59;;;;;;;15.50;2.75;;;3.80;99.90;;;;;;5064831;28;20051;-69
2022/02/25 02:48:25;;;;;;;11.77;1.67;;;3.80;99.90;;;;;;5068343;28;20048;-69
2022/02/25 02:50:51;;;;;;;12.68;2.10;;;3.80;99.90;;;;;;5064720;28;20115;-69
2022/02/25 02:53:16;;;;;;;11.27;1.67;;;3.80;99.90;;;;;;5067715;28;20457;-69
2022/02/25 02:55:44;;;;;;;13.38;1.40;;;3.70;99.90;;;;;;5062996;28;20100;-69
2022/02/25 02:58:10;;;;;;;13.27;2.83;;;3.70;99.90;;;;;;5065513;28;20048;-68
2022/02/25 03:00:37;;;;;;;13.00;1.95;;;3.70;99.90;;;;;;5061242;28;20047;-69
2022/02/25 03:03:02;;;;;;;8.90;1.42;;;3.60;99.90;;;;;;5063539;28;20397;-69
2022/02/25 03:05:29;;;;;;;9.85;2.10;;;3.60;99.90;;;;;;5060555;28;20047;-69
2022/02/25 03:07:55;;;;;;;16.17;1.77;;;3.50;99.90;;;;;;5063627;28;20070;-69
2022/02/25 03:10:20;;;;;;;11.10;1.77;;;3.40;99.90;;;;;;5063534;28;20206;-69
2022/02/25 03:12:46;;;;;;;10.57;1.63;;;3.30;99.90;;;;;;5064281;28;20072;-69
2022/02/25 03:15:13;;;;;;;7.72;1.20;;;3.30;99.90;;;;;;5084356;28;20175;-70
2022/02/25 03:17:40;;;;;;;10.40;1.65;;;3.30;99.90;;;;;;5065459;28;20119;-68
2022/02/25 03:20:08;;;;;;;10.43;1.48;;;3.20;99.90;;;;;;5062190;28;20032;-69
2022/02/25 03:22:34;;;;;;;9.30;1.40;;;3.10;99.90;;;;;;5064525;28;20036;-69
2022/02/25 03:25:01;;;;;;;7.85;1.25;;;3.10;99.90;;;;;;5066271;28;20043;-69
2022/02/25 03:27:28;;;;;;;12.45;1.58;;;3.00;99.90;;;;;;5063910;28;20043;-69
2022/02/25 03:29:55;;;;;;;13.30;1.92;;;2.90;99.90;;;;;;5067075;28;20040;-69
2022/02/25 03:32:21;;;;;;;11.15;2.00;;;2.90;99.90;;;;;;5064822;28;20040;-69
2022/02/25 03:34:48;;;;;;;11.50;1.70;;;2.90;99.90;;;;;;5049559;28;20035;-68
2022/02/25 03:37:14;;;;;;;13.57;2.00;;;2.80;99.90;;;;;;5065880;28;20044;-69
2022/02/25 03:39:39;;;;;;;13.30;1.85;;;2.80;99.90;;;;;;5066356;28;20455;-69
2022/02/25 03:42:06;;;;;;;10.65;1.30;;;2.70;99.90;;;;;;5083321;28;20051;-68
2022/02/25 03:44:32;;;;;;;17.63;2.30;;;2.80;99.90;;;;;;5080250;28;20494;-68
2022/02/25 03:46:58;;;;;;;10.30;1.77;;;2.70;99.90;;;;;;5064870;28;20131;-68
2022/02/25 03:49:23;;;;;;;9.52;2.08;;;2.70;99.90;;;;;;5062658;28;20040;-68
2022/02/25 03:51:49;;;;;;;14.95;2.15;;;2.60;99.90;;;;;;5061768;28;20041;-68
2022/02/25 03:54:15;;;;;;;13.13;1.83;;;2.60;99.90;;;;;;5064608;28;20036;-68
2022/02/25 03:56:41;;;;;;;11.25;1.38;;;2.60;99.90;;;;;;5065460;28;20062;-68
2022/02/25 03:59:07;;;;;;;9.45;1.42;;;2.60;99.90;;;;;;5083006;28;20038;-69
2022/02/25 04:01:32;;;;;;;14.18;1.73;;;2.60;99.90;;;;;;5084435;28;20194;-69
2022/02/25 04:03:58;;;;;;;11.48;2.00;;;2.50;99.90;;;;;;5063190;28;20044;-68
2022/02/25 04:06:25;;;;;;;11.40;2.05;;;2.50;99.90;;;;;;5059841;28;20093;-68
2022/02/25 04:08:51;;;;;;;10.27;1.75;;;2.50;99.90;;;;;;5082143;28;20050;-68
2022/02/25 04:11:19;;;;;;;14.73;1.90;;;2.50;99.90;;;;;;5066132;28;20535;-68
2022/02/25 04:13:45;;;;;;;14.23;1.77;;;2.50;99.90;;;;;;5083151;28;20126;-68
2022/02/25 04:16:10;;;;;;;10.43;1.73;;;2.50;99.90;;;;;;5081830;28;20048;-68
2022/02/25 04:18:37;;;;;;;12.70;1.45;;;2.50;99.90;;;;;;5082518;28;20036;-68
2022/02/25 04:21:02;;;;;;;11.25;1.70;;;2.50;99.90;;;;;;5063190;28;20484;-68
2022/02/25 04:23:28;;;;;;;12.05;1.85;;;2.50;99.90;;;;;;5064166;28;20138;-68
2022/02/25 04:25:54;;;;;;;9.00;1.90;;;2.50;99.90;;;;;;5087744;28;20031;-68
2022/02/25 04:28:20;;;;;;;8.77;1.52;;;2.50;99.90;;;;;;5078068;28;20042;-68
2022/02/25 04:30:46;;;;;;;10.40;1.73;;;2.50;99.90;;;;;;5063049;28;20035;-68
2022/02/25 04:33:12;;;;;;;11.60;1.95;;;2.50;99.90;;;;;;5083769;28;20097;-68
2022/02/25 04:35:38;;;;;;;11.02;2.38;;;2.50;99.90;;;;;;5046772;28;20056;-68
2022/02/25 04:38:04;;;;;;;8.63;1.42;;;2.50;99.90;;;;;;5081998;28;20127;-68
2022/02/25 04:40:30;;;;;;;13.18;1.95;;;2.50;99.90;;;;;;5061001;28;20043;-68
2022/02/25 04:42:56;;;;;;;10.05;2.60;;;2.50;99.90;;;;;;5063539;28;20040;-68
2022/02/25 04:45:22;;;;;;;12.98;1.80;;;2.50;99.90;;;;;;5062850;28;20069;-69
2022/02/25 04:47:48;;;;;;;11.85;1.95;;;2.50;99.90;;;;;;5067443;28;20050;-68
2022/02/25 04:50:15;;;;;;;11.35;1.63;;;2.50;99.90;;;;;;5079740;28;20032;-68
2022/02/25 04:52:43;;;;;;;13.73;2.03;;;2.40;99.90;;;;;;5063243;28;20499;-68
2022/02/25 04:55:10;;;;;;;11.13;1.35;;;2.50;99.90;;;;;;5065529;28;20048;-69
2022/02/25 04:57:36;;;;;;;15.20;1.85;;;2.50;99.90;;;;;;5060510;28;20431;-68
2022/02/25 05:00:06;;;;;;;14.68;2.50;;;2.50;99.90;;;;;;5060109;28;20047;-68
2022/02/25 05:02:32;;;;;;;9.30;1.70;;;2.60;99.90;;;;;;5064788;28;20049;-68
2022/02/25 05:04:58;;;;;;;11.93;1.90;;;2.60;99.90;;;;;;5082499;28;20055;-68
2022/02/25 05:07:25;;;;;;;9.93;1.67;;;2.60;99.90;;;;;;5044416;28;20036;-68
2022/02/25 05:09:51;;;;;;;11.25;1.92;;;2.60;99.90;;;;;;5063807;28;20449;-68
2022/02/25 05:12:16;;;;;;;9.98;1.98;;;2.70;99.90;;;;;;5081987;28;20070;-68
2022/02/25 05:20:24;;;;;;;6.25;1.67;;;2.70;99.90;;;;;;5064081;28;20423;-69
2022/02/25 05:22:53;;;;;;;12.15;1.80;;;2.70;99.90;;;;;;5068310;28;20108;-68
2022/02/25 05:25:19;;;;;;;13.80;2.30;;;2.80;99.90;;;;;;5071715;28;20036;-68
2022/02/25 05:27:45;;;;;;;13.85;2.55;;;2.80;99.90;;;;;;5078605;28;20040;-68
2022/02/25 05:30:11;;;;;;;13.23;2.10;;;2.80;99.90;;;;;;5068134;28;20054;-68
2022/02/25 05:32:37;;;;;;;12.90;1.92;;;2.90;99.90;;;;;;5062819;28;20036;-68
2022/02/25 05:35:03;;;;;;;15.23;1.73;;;2.90;99.90;;;;;;5072678;28;20422;-69
2022/02/25 05:37:29;;;;;;;17.98;2.30;;;2.90;99.90;;;;;;5081126;28;20044;-69
2022/02/25 05:39:54;;;;;;;14.32;2.15;;;2.90;99.90;;;;;;5065026;28;20373;-68
2022/02/25 05:42:21;;;;;;;13.13;3.00;;;2.90;99.90;;;;;;5086833;28;20032;-68
2022/02/25 05:44:47;;;;;;;15.93;2.35;;;2.90;99.90;;;;;;5083421;28;20043;-68
2022/02/25 05:47:13;;;;;;;11.73;1.73;;;2.90;99.90;;;;;;5061443;28;20048;-68
2022/02/25 05:49:38;;;;;;;12.75;2.10;;;2.90;99.90;;;;;;5065716;28;20032;-67
2022/02/25 05:52:04;;;;;;;13.38;2.17;;;2.90;99.90;;;;;;5067176;28;20257;-67
2022/02/25 05:54:30;;;;;;;13.20;2.25;;;3.00;99.90;;;;;;5084475;28;20040;-67
2022/02/25 05:56:56;;;;;;;13.27;2.88;;;2.90;99.90;;;;;;5083825;28;20138;-67
2022/02/25 05:59:21;;;;;;;14.02;3.40;;;3.00;99.90;;;;;;5065082;28;20041;-67
2022/02/25 06:01:47;;;;;;;14.77;2.28;;;3.10;99.90;;;;;;5061732;28;20070;-67
2022/02/25 06:04:13;;;;;;;13.10;2.00;;;3.10;99.90;;;;;;5065232;28;20105;-67
2022/02/25 06:06:38;;;;;;;14.45;2.75;;;3.20;99.90;;;;;;5084232;28;20036;-67
2022/02/25 06:09:04;;;;;;;12.77;2.63;;;3.20;99.90;;;;;;5056680;28;20032;-67
2022/02/25 06:11:30;;;;;;;14.10;2.83;;;3.20;99.90;;;;;;5067241;28;20290;-67
2022/02/25 06:13:55;;;;;;;13.90;3.00;;;3.20;99.90;;;;;;5061405;28;20047;-67
2022/02/25 06:16:21;;;;;;;15.63;2.75;;;3.20;99.90;;;;;;5062062;28;20559;-67
2022/02/25 06:18:47;;;;;;;17.25;2.90;;;3.20;99.90;;;;;;5082315;28;20128;-67
2022/02/25 06:21:13;;;;;;;19.55;2.88;;;3.20;99.90;;;;;;5064242;28;20044;-68
2022/02/25 06:23:39;;;;;;;14.73;2.30;;;3.20;99.90;;;;;;5081836;28;20102;-67
2022/02/25 06:26:04;;;;;;;17.25;2.53;;;3.20;99.90;;;;;;5089277;28;20042;-67
2022/02/25 06:28:31;;;;;;;12.07;2.33;;;3.20;99.90;;;;;;5067168;28;20091;-67
2022/02/25 06:30:57;;;;;;;14.98;2.40;;;3.30;99.90;;;;;;5059858;28;20111;-67
2022/02/25 06:33:22;;;;;;;20.45;2.92;;;3.30;99.90;;;;;;5067468;28;20077;-67
2022/02/25 06:35:48;;;;;;;17.58;2.50;;;3.20;99.90;;;;;;5063098;28;20079;-68
2022/02/25 06:38:14;;;;;;;19.63;2.83;;;3.20;99.90;;;;;;5084637;28;20127;-68
2022/02/25 06:40:39;;;;;;;18.63;2.58;;;3.20;99.90;;;;;;5068086;28;20560;-68
2022/02/25 06:43:05;;;;;;;14.75;2.60;;;3.20;99.90;;;;;;5065424;28;20048;-69
2022/02/25 06:45:31;;;;;;;14.63;2.80;;;3.10;99.90;;;;;;5061973;28;20044;-69
2022/02/25 06:47:57;;;;;;;16.38;2.85;;;3.20;99.90;;;;;;5060519;28;20042;-69
2022/02/25 06:50:22;;;;;;;16.13;2.40;;;3.10;99.90;;;;;;5061378;28;20325;-69
2022/02/25 06:52:48;;;;;;;12.23;2.40;;;3.10;99.90;;;;;;5065422;28;20109;-69
2022/02/25 06:55:16;;;;;;;14.23;2.53;;;3.00;99.90;;;;;;5069328;28;20059;-69
2022/02/25 06:57:43;;;;;;;21.13;3.20;;;3.00;99.90;;;;;;5063755;28;20048;-69
2022/02/25 07:00:11;;;;;;;16.55;2.95;;;3.00;99.90;;;;;;5061711;28;20431;-69
2022/02/25 07:02:37;;;;;;;15.50;2.28;;;3.10;99.90;;;;;;5059334;28;20040;-69
2022/02/25 07:05:04;;;;;;;17.38;2.75;;;3.10;99.90;;;;;;5048385;28;20052;-69
2022/02/25 07:07:29;;;;;;;16.02;2.63;;;3.10;99.90;;;;;;5079274;28;20032;-69
2022/02/25 07:09:55;;;;;;;19.17;2.97;;;3.20;99.90;;;;;;5084679;28;20038;-68
2022/02/25 07:12:22;;;;;;;17.35;2.60;;;3.30;99.90;;;;;;5064441;28;20055;-68
2022/02/25 07:14:48;;;;;;;14.57;2.50;;;3.40;99.90;;;;;;5077502;28;20047;-68
2022/02/25 07:17:14;;;;;;;21.52;2.60;;;3.40;99.90;;;;;;5063443;28;20436;-68
2022/02/25 07:19:40;;;;;;;19.42;2.70;;;3.50;99.90;;;;;;5058501;28;20095;-68
2022/02/25 07:22:06;;;;;;;19.73;2.85;;;3.50;99.90;;;;;;5063376;28;20139;-68
2022/02/25 07:24:32;;;;;;;15.10;3.00;;;3.60;99.90;;;;;;5080523;28;20047;-68
2022/02/25 07:26:57;;;;;;;14.77;2.20;;;3.70;99.90;;;;;;5061896;28;20032;-68
2022/02/25 07:29:23;;;;;;;14.07;2.38;;;3.70;99.90;;;;;;5060359;28;20048;-68
2022/02/25 07:31:49;;;;;;;19.40;2.92;;;3.80;99.90;;;;;;5076861;28;20435;-68
2022/02/25 07:34:14;;;;;;;14.95;2.67;;;3.80;99.90;;;;;;5063774;28;20048;-68
2022/02/25 07:36:40;;;;;;;24.58;4.35;;;3.90;99.90;;;;;;5063229;28;20189;-68
2022/02/25 07:39:06;;;;;;;18.08;3.17;;;3.90;99.90;;;;;;5062692;28;20120;-68
2022/02/25 07:41:32;;;;;;;12.98;2.55;;;3.90;99.90;;;;;;5060564;28;20493;-69
2022/02/25 07:43:58;;;;;;;14.05;2.38;;;4.00;99.90;;;;;;5046906;28;20047;-69
2022/02/25 07:46:23;;;;;;;19.58;3.15;;;4.10;99.90;;;;;;5057087;28;20048;-68
2022/02/25 07:48:49;;;;;;;19.95;2.83;;;4.10;99.90;;;;;;5037110;28;20052;-68
2022/02/25 07:51:15;;;;;;;15.40;2.28;;;4.20;99.90;;;;;;5056138;28;20343;-69
2022/02/25 07:53:41;;;;;;;19.33;3.20;;;4.20;99.90;;;;;;5057402;28;20047;-69
2022/02/25 07:56:07;;;;;;;16.23;3.22;;;4.30;99.90;;;;;;5060889;28;20084;-69
2022/02/25 07:58:32;;;;;;;17.33;2.75;;;4.80;99.90;;;;;;5058976;28;20122;-69
2022/02/25 08:00:59;;;;;;;19.83;2.63;;;5.60;99.90;;;;;;5061990;28;20053;-69
2022/02/25 08:03:25;;;;;;;14.98;2.17;;;6.20;99.90;;;;;;5062620;28;20059;-69
2022/02/25 08:05:51;;;;;;;12.65;2.50;;;6.60;99.90;;;;;;5060481;28;20041;-69
2022/02/25 08:08:18;;;;;;;15.50;3.17;;;7.10;99.90;;;;;;5053153;28;20044;-69
2022/02/25 08:10:44;;;;;;;16.13;2.65;;;7.50;99.90;;;;;;5060908;28;20056;-69
2022/02/25 08:13:10;;;;;;;16.73;3.00;;;8.10;99.90;;;;;;5059514;28;20564;-69
2022/02/25 08:15:36;;;;;;;14.43;2.83;;;8.70;99.90;;;;;;5023130;28;20056;-68
2022/02/25 08:18:07;;;;;;;15.60;3.00;;;9.20;99.90;;;;;;5039984;28;20084;-68
2022/02/25 08:20:35;;;;;;;13.65;2.55;;;9.60;99.90;;;;;;5060200;28;20049;-68
2022/02/25 08:23:02;;;;;;;16.30;2.78;;;10.00;99.90;;;;;;5058764;28;20111;-68
2022/02/25 08:25:28;;;;;;;19.30;3.03;;;10.10;99.90;;;;;;5064131;28;20098;-68
2022/02/25 08:27:55;;;;;;;13.57;2.22;;;10.10;99.90;;;;;;5057369;28;20048;-68
2022/02/25 08:30:21;;;;;;;18.23;3.78;;;10.50;99.90;;;;;;5056598;28;20031;-68
2022/02/25 08:32:49;;;;;;;12.70;2.28;;;10.20;99.90;;;;;;5060203;28;20124;-68
2022/02/25 08:35:16;;;;;;;13.98;2.63;;;9.40;99.90;;;;;;5063630;28;20045;-67
2022/02/25 08:37:43;;;;;;;10.82;2.10;;;8.30;99.90;;;;;;5058638;28;20512;-67
2022/02/25 08:40:12;;;;;;;13.82;2.33;;;7.50;99.90;;;;;;5056581;28;20040;-67
2022/02/25 08:42:39;;;;;;;12.00;2.15;;;6.90;99.90;;;;;;5053867;28;20037;-67
2022/02/25 08:45:06;;;;;;;13.90;2.40;;;6.40;99.90;;;;;;5052501;28;20153;-67
2022/02/25 08:47:32;;;;;;;14.02;2.58;;;6.20;99.90;;;;;;5053014;28;20086;-68
2022/02/25 08:49:58;;;;;;;9.65;1.90;;;6.00;99.90;;;;;;5058553;28;20048;-68
2022/02/25 08:52:24;;;;;;;12.85;2.25;;;6.30;99.90;;;;;;5066911;28;20044;-68
2022/02/25 08:54:50;;;;;;;18.75;2.75;;;7.10;99.90;;;;;;5066430;28;20167;-68
2022/02/25 08:57:16;;;;;;;13.07;2.00;;;8.30;99.90;;;;;;5040466;28;20048;-68
2022/02/25 08:59:42;;;;;;;12.40;1.95;;;9.20;99.90;;;;;;5066473;28;20056;-68
2022/02/25 09:02:10;;;;;;;10.48;2.25;;;10.10;99.90;;;;;;5051815;28;20074;-68
2022/02/25 09:04:36;;;;;;;16.42;2.60;;;10.20;99.90;;;;;;5050670;28;20113;-68
2022/02/25 09:07:02;;;;;;;16.33;2.50;;;9.60;99.90;;;;;;5048686;28;20056;-68
2022/02/25 09:09:28;;;;;;;12.80;2.50;;;10.00;99.90;;;;;;5072045;28;22171;-68
2022/02/25 09:11:54;;;;;;;15.25;2.38;;;10.80;99.90;;;;;;5065192;28;20048;-68
2022/02/25 09:14:20;;;;;;;14.82;2.38;;;11.60;99.90;;;;;;5067056;28;20178;-68
2022/02/25 09:16:48;;;;;;;17.13;3.15;;;12.30;99.90;;;;;;5047007;28;20044;-68
2022/02/25 09:19:15;;;;;;;17.75;2.70;;;12.80;99.90;;;;;;5033803;28;20056;-68
2022/02/25 09:21:41;;;;;;;15.73;2.97;;;13.00;99.80;;;;;;5075955;28;20403;-68
2022/02/25 09:24:07;;;;;;;12.85;2.63;;;12.50;97.20;;;;;;5048406;28;20170;-69
2022/02/25 09:26:33;;;;;;;11.85;2.40;;;11.30;96.00;;;;;;5061606;28;20053;-68
2022/02/25 09:28:59;;;;;;;12.00;2.42;;;10.00;96.50;;;;;;5079036;28;20499;-70
2022/02/25 09:31:26;;;;;;;15.38;2.50;;;9.10;98.30;;;;;;5079472;28;20044;-69
2022/02/25 09:33:52;;;;;;;10.35;1.88;;;8.40;99.60;;;;;;5063778;28;20051;-69
2022/02/25 09:36:18;;;;;;;10.75;2.17;;;7.90;99.90;;;;;;5059586;28;20044;-69
2022/02/25 09:38:44;;;;;;;10.45;1.50;;;7.50;99.90;;;;;;5063965;28;20129;-68
2022/02/25 09:41:11;;;;;;;11.75;1.83;;;7.10;99.90;;;;;;5048694;28;20112;-68
2022/02/25 09:43:37;;;;;;;7.93;1.20;;;6.80;99.90;;;;;;5059308;28;20048;-68
2022/02/25 09:46:05;;;;;;;11.43;1.67;;;6.60;99.90;;;;;;5079032;28;20075;-68
2022/02/25 09:48:32;;;;;;;9.38;1.58;;;6.40;99.90;;;;;;5050446;28;20052;-68
2022/02/25 09:50:58;;;;;;;11.10;1.65;;;6.30;99.90;;;;;;5059555;28;20052;-69
2022/02/25 09:53:25;;;;;;;14.02;1.90;;;6.50;99.90;;;;;;5062239;28;20514;-69
2022/02/25 09:55:50;;;;;;;13.15;2.28;;;7.30;99.90;;;;;;5067178;28;20559;-69
2022/02/25 09:58:16;;;;;;;12.75;2.67;;;8.20;99.90;;;;;;5067329;28;20114;-69
2022/02/25 10:00:44;;;;;;;13.93;2.33;;;9.40;99.90;;;;;;5083455;28;20044;-69
2022/02/25 10:03:13;;;;;;;14.18;2.13;;;10.50;99.90;;;;;;5065019;28;20049;-69
2022/02/25 10:05:39;;;;;;;18.08;3.30;;;11.30;99.90;;;;;;5069917;28;20036;-69
2022/02/25 10:08:08;;;;;;;12.82;2.70;;;11.80;98.60;;;;;;5063474;28;20110;-69
2022/02/25 10:10:41;;;;;;;14.27;2.63;;;12.20;97.50;;;;;;5051513;28;20052;-68
2022/02/25 10:13:07;;;;;;;11.77;2.20;;;12.70;96.20;;;;;;5061906;28;20135;-68
2022/02/25 10:15:35;;;;;;;12.18;2.35;;;12.20;95.70;;;;;;5064351;28;20139;-68
2022/02/25 10:18:05;;;;;;;14.30;2.72;;;12.00;95.80;;;;;;5085300;28;20044;-68
2022/02/25 10:20:32;;;;;;;17.27;2.80;;;12.30;96.00;;;;;;5082835;28;20531;-68
2022/02/25 10:22:58;;;;;;;13.02;2.38;;;12.60;95.20;;;;;;5084798;28;20044;-69
2022/02/25 10:25:31;;;;;;;12.45;2.83;;;12.80;94.20;;;;;;5066930;28;20044;-69
2022/02/25 10:27:57;;;;;;;14.98;2.55;;;12.40;92.80;;;;;;5064382;28;20058;-69
2022/02/25 10:30:23;;;;;;;11.60;2.65;;;11.80;93.70;;;;;;5086147;28;20119;-68
2022/02/25 10:32:51;;;;;;;14.90;2.42;;;11.80;94.60;;;;;;5085681;28;20036;-68
2022/02/25 10:35:35;;;;;;;15.25;2.70;;;11.20;93.50;;;;;;5065197;28;20047;-69
2022/02/25 10:38:16;;;;;;;13.83;2.77;;;10.50;93.10;;;;;;5081068;28;20032;-69
2022/02/25 10:40:48;;;;;;;14.40;3.10;;;9.80;93.70;;;;;;5081490;28;20032;-68
2022/02/25 10:43:19;;;;;;;16.88;3.47;;;9.30;94.70;;;;;;5068485;28;20097;-69
2022/02/25 10:45:50;;;;;;;15.95;2.78;;;8.90;95.00;;;;;;5064590;28;20036;-69
2022/02/25 10:48:19;;;;;;;16.70;2.92;;;8.80;95.20;;;;;;5054620;28;20463;-69
2022/02/25 10:50:45;;;;;;;18.15;2.90;;;8.60;95.30;;;;;;5080831;28;20094;-69
2022/02/25 10:53:10;;;;;;;18.20;3.00;;;8.50;95.50;;;;;;5085192;28;20037;-69
2022/02/25 10:55:36;;;;;;;16.38;2.67;;;8.40;96.20;;;;;;5067288;28;20455;-69
2022/02/25 10:58:03;;;;;;;16.10;2.67;;;8.20;96.60;;;;;;5084608;28;20043;-69
2022/02/25 11:00:30;;;;;;;22.98;3.83;;;8.20;97.20;;;;;;5067332;28;20100;-69
2022/02/25 11:03:01;;;;;;;16.73;2.75;;;8.30;97.60;;;;;;5062890;28;20205;-69
2022/02/25 11:05:35;;;;;;;20.23;3.15;;;8.30;97.70;;;;;;5047083;28;20044;-69
2022/02/25 11:08:03;;;;;;;16.90;2.75;;;8.20;97.50;;;;;;5065401;28;20087;-69
2022/02/25 11:10:31;;;;;;;16.95;3.33;;;8.00;98.00;;;;;;5060541;28;20398;-69
2022/02/25 11:13:01;;;;;;;20.08;3.00;;;7.80;98.60;;;;;;5066958;28;20445;-68
2022/02/25 11:15:32;;;;;;;11.48;2.00;;;7.50;99.10;;;;;;5078549;28;20530;-68
2022/02/25 11:17:58;;;;;;;10.27;1.55;;;7.20;99.90;;;;;;5063480;28;20048;-68
2022/02/25 11:20:32;;;;;;;5.40;1.02;;;6.80;99.40;;;;;;5083588;28;20414;-68
2022/02/25 11:23:07;;;;;;;8.70;1.27;;;6.30;99.20;;;;;;5068090;28;20052;-67
2022/02/25 11:25:34;;;;;;;2.90;0.55;;;5.90;99.80;;;;;;5081709;28;20641;-67
2022/02/25 11:28:00;;;;;;;3.80;0.77;;;5.50;99.90;;;;;;5081248;28;20040;-66
2022/02/25 11:30:40;;;;;;;4.78;0.70;;;5.20;99.90;;;;;;5082461;28;20366;-65
2022/02/25 11:33:13;;;;;;;4.88;1.35;;;4.80;99.90;;;;;;5082453;28;20063;-66
2022/02/25 11:36:02;;;;;;;5.85;0.50;;;4.70;99.90;;;;;;5078805;28;20171;-66
2022/02/25 11:38:40;;;;;;;5.03;0.82;;;4.60;99.90;;;;;;5068773;28;20052;-67
2022/02/25 11:41:15;;;;;;;4.30;0.65;;;4.50;99.90;;;;;;5059450;28;20124;-67
2022/02/25 11:43:47;;;;;;;6.63;1.13;;;4.40;99.90;;;;;;5083916;28;20044;-67
2022/02/25 11:46:21;;;;;;;5.85;0.77;;;4.40;99.90;;;;;;5076179;28;20124;-68
2022/02/25 11:48:51;;;;;;;8.70;0.93;;;4.40;99.90;;;;;;5062805;28;20047;-68
2022/02/25 11:51:54;;;;;;;7.28;0.90;;;4.50;99.90;;;;;;5063388;28;20044;-68
2022/02/25 11:54:24;;;;;;;6.88;0.82;;;4.50;99.90;;;;;;5060321;28;20045;-68
2022/02/25 11:56:55;;;;;;;6.57;1.15;;;4.50;99.90;;;;;;5083298;28;20071;-68
2022/02/25 11:59:26;;;;;;;12.20;1.25;;;4.50;99.90;;;;;;5083002;28;20477;-68
2022/02/25 12:02:20;;;;;;;5.35;0.98;;;4.50;99.90;;;;;;5065226;28;20558;-69
2022/02/25 12:05:10;;;;;;;7.43;1.35;;;4.50;99.90;;;;;;5062632;28;20040;-68
2022/02/25 12:07:41;;;;;;;6.88;0.85;;;4.70;99.90;;;;;;5062772;28;20622;-68
2022/02/25 12:10:13;;;;;;;6.75;0.75;;;5.40;99.90;;;;;;5080368;28;20028;-68
2022/02/25 12:13:03;;;;;;;6.35;0.80;;;6.60;99.90;;;;;;5051370;28;20051;-68
2022/02/25 12:15:49;;;;;;;5.88;0.85;;;7.90;99.90;;;;;;5079921;28;20136;-68
2022/02/25 12:18:16;;;;;;;8.98;1.40;;;9.10;99.90;;;;;;5080190;28;20480;-68
2022/02/25 12:20:48;;;;;;;6.70;0.75;;;9.60;99.90;;;;;;5073941;28;20454;-68
2022/02/25 12:23:18;;;;;;;4.45;0.60;;;10.00;99.40;;;;;;5062148;28;20396;-69
2022/02/25 12:25:46;;;;;;;8.18;0.77;;;10.30;97.60;;;;;;5081835;28;20047;-68
2022/02/25 12:28:22;;;;;;;7.55;1.20;;;10.40;96.70;;;;;;5077162;28;20122;-69
2022/02/25 12:30:56;;;;;;;4.13;0.95;;;10.60;96.90;;;;;;5062225;28;20056;-68
2022/02/25 12:33:39;;;;;;;5.97;0.97;;;10.40;95.10;;;;;;5063754;28;20050;-69
2022/02/25 12:36:37;;;;;;;6.88;0.70;;;10.60;94.60;;;;;;5081861;28;20488;-69
2022/02/25 12:39:16;;;;;;;6.15;1.40;;;10.40;93.90;;;;;;5045031;28;20071;-69
2022/02/25 12:41:48;;;;;;;5.00;0.70;;;10.60;95.20;;;;;;5057011;28;20044;-69
2022/02/25 12:44:22;;;;;;;6.55;0.80;;;10.80;95.20;;;;;;5065056;28;20093;-69
2022/02/25 12:46:51;;;;;;;10.30;0.93;;;10.20;95.30;;;;;;5060911;28;20046;-69
2022/02/25 12:49:19;;;;;;;7.88;1.05;;;9.60;95.80;;;;;;5060432;28;20044;-69
2022/02/25 12:51:45;;;;;;;5.43;0.98;;;8.90;97.20;;;;;;5082728;28;20079;-69
2022/02/25 12:54:13;;;;;;;7.80;1.10;;;8.70;98.40;;;;;;5082900;28;20051;-69
2022/02/25 12:56:42;;;;;;;6.65;1.02;;;8.60;98.10;;;;;;5058496;28;20137;-69